• Join FlightAware (Why Join?)
  • Login
  • US Flag 
01:43PM EDT


 

Airport Tracker/Info


-or-


 

Live Flight TrackerFlight Track Log ✈ AWE1963 ✈ 22-Jun-2013 ✈ KCLT - MDPC / PUJ

Flight Track Log - Related Links

Times and Time Zones

All times are in EDT time to prevent confusion due to time zone crossing. See the AWE1963 flight status page for this flight to view local times or setup timezone preferences in your user account.

Time Position Orientation Groundspeed Altitude Reporting Facility
EDT Latitude Longitude Course Direction KTS MPH feet Rate Location/Type
09:16AM 35.2369 -80.9417 180° South 161 185 1,700  Level Atlanta Center
09:17AM 35.2781 -80.9144 28° Northeast 200 230 2,900 1,800 Climbing Atlanta Center
09:18AM 35.0256 -80.7756 180° South  Level Estimated
09:18AM 35.2178 -80.8456 137° Southeast 234 269 6,100  Level Atlanta Center
09:19AM 34.9314 -80.6891 175° South  Level Estimated
09:19AM 35.1386 -80.8539 185° South 228 262 8,400  Level Atlanta Center
09:20AM 34.8372 -80.6028 180° South  Level Estimated
09:20AM 35.0553 -80.8594 183° South 276 318 10,600  Level Atlanta Center
09:21AM 34.7429 -80.5168 180° South  Level Estimated
09:23AM 34.8242 -80.8972 188° South 364 419 14,400  Level Jacksonville Center
09:24AM 34.7242 -80.9147 188° South 379 436 16,200 1,740 Climbing Jacksonville Center
09:25AM 34.6161 -80.9322 188° South 384 442 17,900 1,740 Climbing Jacksonville Center
09:26AM 34.5078 -80.9525 189° South 390 449 19,700 1,620 Climbing Jacksonville Center
09:27AM 34.3936 -80.9725 188° South 390 449 21,200 1,380 Climbing Jacksonville Center
09:28AM 34.2853 -80.9875 187° South 390 449 22,500 1,320 Climbing Jacksonville Center
09:29AM 34.1769 -81.0025 187° South 390 449 23,900 1,200 Climbing Jacksonville Center
09:30AM 34.0683 -80.9847 172° South 390 449 24,900 540 Climbing Jacksonville Center
09:31AM 33.9556 -80.9822 179° South 396 456 25,000  Climbing Jacksonville Center
09:32AM 33.8386 -80.9847 181° South 406 467 25,000  Level Jacksonville Center
09:33AM 33.7239 -80.9922 183° South 411 473 25,000  Level Jacksonville Center
09:34AM 33.6094 -80.9997 183° South 416 479 25,000 420 Level Jacksonville Center
09:35AM 33.4947 -81.0047 182° South 416 479 25,900 900 Climbing Jacksonville Center
09:36AM 33.3778 -81.0122 183° South 421 484 26,900 900 Climbing Jacksonville Center
09:37AM 33.2694 -81.0169 182° South 421 484 27,800 840 Climbing Jacksonville Center
09:38AM 33.1506 -81.0244 183° South 421 484 28,600 660 Climbing Jacksonville Center
09:39AM 33.0275 -81.0294 182° South 426 490 29,200 660 Climbing Jacksonville Center
09:40AM 32.9025 -81.0369 183° South 440 506 30,000 900 Climbing Jacksonville Center
09:41AM 32.7814 -81.0419 182° South 440 506 31,000 900 Climbing Jacksonville Center
09:42AM 32.6561 -81.0494 183° South 440 506 31,800 840 Climbing Jacksonville Center
09:43AM 32.5353 -81.0567 183° South 440 506 32,700 900 Climbing Jacksonville Center
09:44AM 32.4164 -81.0617 182° South 429 494 33,700 840 Climbing Jacksonville Center
09:45AM 32.2911 -81.0692 183° South 440 506 34,400 720 Climbing Jacksonville Center
09:46AM 32.1722 -81.0739 182° South 440 506 35,200 720 Climbing Jacksonville Center
09:47AM 32.0533 -81.0811 183° South 435 501 35,900 360 Climbing Jacksonville Center
09:48AM 31.9344 -81.0883 183° South 435 501 36,000  Climbing Jacksonville Center
09:49AM 31.8050 -81.0908 181° South 430 495 36,000  Level Jacksonville Center
09:50AM 31.6986 -81.0978 183° South 425 489 36,000  Level Jacksonville Center
09:51AM 31.5672 -81.1053 183° South 425 489 36,000  Level Jacksonville Center
09:52AM 31.4608 -81.1097 182° South 425 489 36,000  Level Jacksonville Center
09:53AM 31.3253 -81.1219 184° South 430 495 36,000  Level Jacksonville Center
09:54AM 31.2022 -81.1244 181° South 441 507 36,000  Level Jacksonville Center
09:55AM 31.0811 -81.1292 182° South 436 502 36,000  Level Jacksonville Center
09:56AM 30.9728 -81.1383 184° South 436 502 36,000  Level Jacksonville Center
09:57AM 30.8494 -81.1431 182° South 436 502 36,000  Level Jacksonville Center
09:58AM 30.7286 -81.1478 182° South 436 502 36,000 -60 Level Jacksonville Center
09:59AM 30.6075 -81.1525 182° South 442 509 35,900  Descending Jacksonville Center
10:00AM 30.4861 -81.1328 172° South 436 502 36,000  Climbing Jacksonville Center
10:01AM 30.3644 -81.0917 164° South 449 517 35,900  Descending Jacksonville Center
10:02AM 30.2428 -81.0533 165° South 449 517 36,000  Climbing Jacksonville Center
10:03AM 30.1253 -81.0144 164° South 454 522 35,900 -60 Descending Jacksonville Center
10:04AM 30.0036 -80.9761 165° South 454 522 35,900  Level Jacksonville Center
10:05AM 29.8800 -80.9356 164° South 454 522 36,000  Climbing Jacksonville Center
10:06AM 29.7583 -80.8972 165° South 454 522 36,000  Level Jacksonville Center
10:07AM 29.6344 -80.8569 164° South 454 522 36,000  Level Jacksonville Center
10:08AM 29.5128 -80.8189 165° South 454 522 36,000  Level Jacksonville Center
10:09AM 29.3825 -80.7739 163° South 454 522 36,000  Level Jacksonville Center
10:10AM 29.2600 -80.7381 166° South 453 521 36,000  Level Miami Center
10:11AM 29.1278 -80.6956 164° South 453 521 36,000  Level Miami Center
10:12AM 29.0206 -80.6442 157° South 453 521 36,000  Level Miami Center
10:13AM 28.9236 -80.5294 134° Southeast 443 510 36,000  Level Miami Center
10:14AM 28.8511 -80.4228 128° Southeast 453 521 36,000  Level Miami Center
10:15AM 28.7603 -80.2969 129° Southeast 459 528 36,000  Level Miami Center
10:16AM 28.6733 -80.1806 130° Southeast 472 543 36,100  Climbing Miami Center
10:17AM 28.5925 -80.0694 130° Southeast 467 537 36,000 -60 Descending Miami Center
10:18AM 28.5175 -79.9681 130° Southeast 467 537 36,000  Level Miami Center
10:19AM 28.4242 -79.8428 130° Southeast 467 537 36,000  Level Miami Center
10:20AM 28.3408 -79.7319 130° Southeast 462 532 36,000  Level Miami Center
10:21AM 28.2594 -79.6217 130° Southeast 462 532 36,000  Level Miami Center
10:22AM 28.1739 -79.5111 131° Southeast 462 532 36,000  Level Miami Center
10:23AM 28.0903 -79.3986 130° Southeast 462 532 36,000  Level Miami Center
10:24AM 28.0067 -79.2836 129° Southeast 462 532 36,000  Level Miami Center
10:25AM 27.9228 -79.1739 131° Southeast 462 532 36,000  Level Miami Center
10:26AM 27.8389 -79.0642 131° Southeast 462 532 36,000  Level Miami Center
10:27AM 27.7653 -78.9617 129° Southeast 462 532 36,100 300 Climbing Miami Center
10:28AM 27.6814 -78.8522 131° Southeast 462 532 36,600 420 Climbing Miami Center
10:29AM 27.5869 -78.7289 131° Southeast 468 539 37,000 180 Climbing Miami Center
10:30AM 27.4986 -78.6197 132° Southeast 462 532 37,000  Level Miami Center
10:31AM 27.4119 -78.5108 132° Southeast 462 532 37,000 -60 Level Miami Center
10:32AM 27.3339 -78.3972 128° Southeast 462 532 36,900  Descending Miami Center
10:33AM 27.2514 -78.3097 137° Southeast 457 526 37,000  Climbing Miami Center
10:34AM 27.1689 -78.1919 128° Southeast 462 532 37,000  Level Miami Center
10:35AM 27.0778 -78.0931 136° Southeast 462 532 37,000  Level Miami Center
10:36AM 26.9953 -77.9708 127° Southeast 468 539 37,000  Level Miami Center
10:37AM 26.9103 -77.8628 131° Southeast 462 532 37,100  Climbing Miami Center
10:38AM 26.8275 -77.7619 133° Southeast 456 525 37,000 -60 Descending Miami Center
10:39AM 26.7444 -77.6519 130° Southeast 461 531 37,000  Level Miami Center
10:40AM 26.6636 -77.5444 130° Southeast 455 524 37,000  Level Miami Center
10:41AM 26.5700 -77.4233 131° Southeast 455 524 37,000  Level Miami Center
10:42AM 26.4869 -77.3231 133° Southeast 455 524 37,000  Level Miami Center
10:43AM 26.4036 -77.2136 130° Southeast 455 524 37,000  Level Miami Center
10:44AM 26.3286 -77.1183 131° Southeast 455 524 37,000  Level Miami Center
10:45AM 26.2453 -77.0069 130° Southeast 460 529 37,000  Level Miami Center
10:46AM 26.1617 -76.9097 134° Southeast 460 529 37,000  Level Miami Center
10:47AM 26.0781 -76.8031 131° Southeast 460 529 37,000  Level Miami Center
10:48AM 25.9944 -76.6969 131° Southeast 454 522 37,000  Level Miami Center
10:49AM 25.9128 -76.5953 132° Southeast 454 522 37,000  Level Miami Center
10:50AM 25.8289 -76.4917 132° Southeast 454 522 37,000  Level Miami Center
10:51AM 25.7450 -76.3881 132° Southeast 449 517 37,000  Level Miami Center
10:52AM 25.6589 -76.2800 131° Southeast 454 522 37,000  Level Miami Center
10:53AM 25.5769 -76.1792 132° Southeast 449 517 37,000  Level Miami Center
10:54AM 25.4908 -76.0736 132° Southeast 449 517 37,000  Level Miami Center
10:55AM 25.4067 -75.9683 131° Southeast 449 517 37,000  Level Miami Center
10:56AM 25.3267 -75.8700 132° Southeast 442 509 37,000  Level Miami Center
10:57AM 25.2381 -75.7653 133° Southeast 447 514 37,000  Level Miami Center
10:58AM 25.1472 -75.6489 131° Southeast 447 514 37,000  Level Miami Center
10:59AM 25.0628 -75.5511 134° Southeast 442 509 37,000  Level Miami Center
11:00AM 24.9825 -75.4511 132° Southeast 442 509 37,000  Level Miami Center
11:01AM 24.8978 -75.3489 132° Southeast 442 509 37,000  Level Miami Center
11:02AM 24.8175 -75.2469 131° Southeast 436 502 37,000  Level Miami Center
11:03AM 24.7328 -75.1475 133° Southeast 437 503 37,000  Level Miami Center
11:04AM 24.6522 -75.0478 132° Southeast 437 503 37,000  Level Miami Center
11:05AM 24.5650 -74.9417 132° Southeast 442 509 37,000  Level Miami Center
11:06AM 24.4844 -74.8494 134° Southeast 437 503 37,000  Level Miami Center
11:07AM 24.4014 -74.7458 131° Southeast 437 503 37,000  Level Miami Center
11:08AM 24.3164 -74.6447 133° Southeast 437 503 37,000  Level Miami Center
11:09AM 24.2314 -74.5458 133° Southeast 437 503 37,000  Level Miami Center
11:10AM 24.1483 -74.4450 132° Southeast 437 503 37,000  Level Miami Center
11:11AM 24.0631 -74.3464 133° Southeast 437 503 37,000  Level Miami Center
11:12AM 23.9797 -74.2458 132° Southeast 443 510 37,000  Level Miami Center
11:13AM 23.8967 -74.1453 132° Southeast 438 504 37,000 -300 Level Miami Center
11:14AM 23.8111 -74.0472 134° Southeast 438 504 36,400 -840 Descending Miami Center
11:15AM 23.7256 -73.9469 133° Southeast 444 511 35,400 -720 Descending Miami Center
11:16AM 23.6422 -73.8492 133° Southeast 439 505 35,000 -240 Descending Miami Center
11:17AM 23.5567 -73.7492 133° Southeast 445 512 35,000  Level Miami Center
11:18AM 23.4794 -73.6606 134° Southeast 445 512 35,000  Level Miami Center
11:19AM 23.3917 -73.5608 134° Southeast 445 512 35,000  Level Miami Center
11:20AM 23.3058 -73.4592 133° Southeast 445 512 35,000  Level Miami Center
11:21AM 23.2242 -73.3597 132° Southeast 445 512 35,000  Level Miami Center
11:22AM 23.1322 -73.2606 135° Southeast 450 518 35,000  Level Miami Center
11:23AM 23.0483 -73.1636 133° Southeast 445 512 35,000  Level Miami Center
11:24AM 22.9728 -73.0642 130° Southeast 445 512 35,000  Level Miami Center
11:25AM 22.8847 -72.9653 134° Southeast 445 512 35,000  Level Miami Center
11:26AM 22.7942 -72.8622 134° Southeast 450 518 35,000  Level Miami Center
11:27AM 22.7039 -72.7614 134° Southeast 456 525 35,000  Level Miami Center
11:28AM 22.6175 -72.6586 132° Southeast 462 532 35,000  Level Miami Center
11:29AM 22.5269 -72.5581 134° Southeast 462 532 35,000  Level Miami Center
11:30AM 22.4403 -72.4531 132° Southeast 462 532 35,000  Level Miami Center
11:31AM 22.3519 -72.3528 134° Southeast 462 532 35,000  Level Miami Center
11:32AM 22.2633 -72.2550 134° Southeast 462 532 35,000 -60 Level Miami Center
11:33AM 22.1747 -72.1550 134° Southeast 462 532 34,900 -60 Descending Miami Center
11:34AM 22.0861 -72.0553 134° Southeast 462 532 34,900  Level Miami Center
11:35AM 21.9950 -71.9533 134° Southeast 462 532 35,000  Climbing Miami Center
11:36AM 21.9061 -71.8514 133° Southeast 462 532 35,000  Level Miami Center
11:37AM 21.8194 -71.7519 133° Southeast 462 532 35,000  Level Miami Center
11:38AM 21.7283 -71.6506 134° Southeast 467 537 35,000  Level Miami Center
11:39AM 21.6394 -71.5514 134° Southeast 461 531 35,000  Level Miami Center
11:40AM 21.5506 -71.4522 134° Southeast 461 531 35,000  Level Miami Center
11:41AM 21.4594 -71.3558 135° Southeast 461 531 35,000  Level Miami Center
11:42AM 21.3681 -71.2525 134° Southeast 466 536 35,000  Level Miami Center
11:43AM 21.2639 -71.1392 135° Southeast 476 548 35,000  Level Miami Center
11:44AM 21.1786 -71.0381 132° Southeast 471 542 35,000  Level Miami Center
11:45AM 21.0914 -70.9397 134° Southeast 460 529 35,000  Level Miami Center
11:46AM 21.0022 -70.8436 135° Southeast 460 529 35,000  Level Miami Center
11:47AM 20.9128 -70.7433 134° Southeast 465 535 35,000  Level Miami Center
11:48AM 20.8236 -70.6453 134° Southeast 465 535 35,000  Level Miami Center
11:49AM 20.7319 -70.5456 134° Southeast 465 535 35,000 -240 Level Miami Center
11:50AM 20.6425 -70.4478 134° Southeast 465 535 34,600 -660 Descending Miami Center
11:51AM 20.5550 -70.3522 134° Southeast 460 529 33,700 -960 Descending Miami Center
11:52AM 20.4678 -70.2547 134° Southeast 460 529 32,700 -1,020 Descending Miami Center
11:53AM 20.3781 -70.1550 134° Southeast 465 535 31,700 -1,080 Descending Miami Center
11:54AM 20.2864 -70.0603 136° Southeast 465 535 30,600 -1,140 Descending Miami Center
11:55AM 20.1967 -69.9631 135° Southeast 465 535 29,500 -1,140 Descending Miami Center
11:56AM 20.1047 -69.8642 135° Southeast 465 535 28,400 -1,200 Descending Miami Center
11:57AM 20.0194 -69.7714 134° Southeast 460 529 27,200 -1,200 Descending Miami Center
11:58AM 19.9361 -69.6789 134° Southeast 449 517 26,100 -1,140 Descending Miami Center
12:00PM 19.7912 -69.5330 141° Southeast  Level FlightAware Approximate
12:07PM 19.1818 -68.9483 137° Southeast  Level FlightAware Approximate
12:08PM 19.0941 -68.8656 140° Southeast  Level FlightAware Approximate
12:09PM 19.0036 -68.7865 140° Southeast  Level FlightAware Approximate
12:10PM 18.9180 -68.7013 137° Southeast  Level FlightAware Approximate
12:11PM 18.8316 -68.6172 140° Southeast  Level FlightAware Approximate
12:12PM 18.7411 -68.5381 140° Southeast  Level FlightAware Approximate
12:13PM 18.6510 -68.4674 148° Southeast  Level FlightAware Approximate
12:14PM 18.5776 -68.3776 137° Southeast  Level FlightAware Approximate
12:15PM 18.5674 -68.3634 90° East  Level Estimated
12:16PM 18.5674 -68.3634 90° East  Level Estimated
12:17PM 18.5674 -68.3634 90° East  Level Estimated
12:18PM 18.5674 -68.3634 90° East  Level Estimated
12:19PM 18.5674 -68.3634 90° East  Level Estimated